Time;durP1;ratioP1;P1;durP2;ratioP2;P2;SDS_P1;SDS_P2;PMS_P1;PMS_P2;Temp;Humidity;BMP_temperature;BMP_pressure;BME280_temperature;BME280_humidity;BME280_pressure;Samples;Min_cycle;Max_cycle;Signal;HPM_P1;HPM_P2
2022/03/03 00:01:37;;;;;;;18.45;10.23;;;19.80;73.30;;;;;;4224652;28;20266;-79
2022/03/03 00:03:39;;;;;;;18.33;10.68;;;19.80;73.30;;;;;;4228679;28;20210;-79
2022/03/03 00:05:42;;;;;;;21.75;10.32;;;19.80;73.30;;;;;;4229223;28;20658;-79
2022/03/03 00:07:44;;;;;;;18.42;10.52;;;19.80;73.20;;;;;;4228093;28;20658;-79
2022/03/03 00:09:46;;;;;;;18.00;10.75;;;19.80;73.20;;;;;;4228250;28;20210;-79
2022/03/03 00:11:49;;;;;;;16.63;9.93;;;19.80;73.30;;;;;;4229406;28;20559;-80
2022/03/03 00:13:51;;;;;;;16.75;10.20;;;19.80;73.40;;;;;;4229097;28;20246;-79
2022/03/03 00:15:55;;;;;;;17.38;9.93;;;19.80;73.30;;;;;;4228952;28;20234;-79
2022/03/03 00:17:57;;;;;;;17.25;10.27;;;19.80;73.40;;;;;;4226891;28;20267;-79
2022/03/03 00:20:00;;;;;;;16.95;9.98;;;19.80;73.40;;;;;;4227460;28;20655;-79
2022/03/03 00:22:02;;;;;;;20.02;10.57;;;19.80;73.40;;;;;;4228538;28;20270;-79
2022/03/03 00:24:05;;;;;;;18.65;10.23;;;19.70;73.30;;;;;;4228858;28;21714;-79
2022/03/03 00:26:08;;;;;;;17.55;10.00;;;19.70;73.40;;;;;;4228591;28;20312;-79
2022/03/03 00:28:10;;;;;;;17.58;10.18;;;19.70;73.30;;;;;;4229675;28;20217;-79
2022/03/03 00:30:13;;;;;;;18.02;10.00;;;19.70;73.30;;;;;;4229385;28;20210;-79
2022/03/03 00:32:17;;;;;;;16.27;10.43;;;19.70;73.50;;;;;;4229378;28;20205;-79
2022/03/03 00:34:19;;;;;;;17.75;10.23;;;19.70;73.50;;;;;;4229297;28;20233;-79
2022/03/03 00:36:22;;;;;;;17.58;10.15;;;19.70;73.50;;;;;;4229201;28;20218;-79
2022/03/03 00:38:24;;;;;;;17.13;10.57;;;19.70;73.40;;;;;;4229130;28;20213;-79
2022/03/03 00:40:26;;;;;;;16.08;9.90;;;19.70;73.50;;;;;;4227434;28;20266;-79
2022/03/03 00:42:29;;;;;;;19.45;10.25;;;19.70;73.50;;;;;;4226197;28;20221;-79
2022/03/03 00:44:31;;;;;;;18.23;10.15;;;19.70;73.50;;;;;;4228768;28;20209;-79
2022/03/03 00:46:34;;;;;;;13.93;9.20;;;19.70;73.50;;;;;;4224714;28;20210;-79
2022/03/03 00:48:37;;;;;;;19.85;10.27;;;19.70;73.50;;;;;;4224070;28;20206;-79
2022/03/03 00:50:40;;;;;;;17.67;10.10;;;19.60;73.50;;;;;;4225457;28;20290;-79
2022/03/03 00:52:42;;;;;;;17.65;9.43;;;19.70;73.50;;;;;;4223420;28;20206;-79
2022/03/03 00:54:45;;;;;;;18.83;10.00;;;19.60;73.50;;;;;;4224241;28;20254;-79
2022/03/03 00:56:47;;;;;;;16.75;9.85;;;19.60;73.40;;;;;;4226197;28;20285;-79
2022/03/03 00:58:50;;;;;;;15.73;10.02;;;19.60;73.50;;;;;;4225114;28;20267;-79
2022/03/03 01:00:52;;;;;;;18.83;10.00;;;19.70;73.60;;;;;;4226138;28;20233;-79
2022/03/03 01:02:55;;;;;;;18.08;10.23;;;19.60;73.50;;;;;;4225504;28;20337;-79
2022/03/03 01:04:58;;;;;;;15.43;10.52;;;19.60;73.50;;;;;;4223820;28;20255;-79
2022/03/03 01:07:01;;;;;;;19.05;10.55;;;19.60;74.30;;;;;;4224313;28;20213;-79
2022/03/03 01:09:04;;;;;;;18.50;9.75;;;19.60;73.60;;;;;;4226528;28;20217;-79
2022/03/03 01:11:07;;;;;;;17.05;9.63;;;19.60;74.30;;;;;;4228256;28;20217;-80
2022/03/03 01:13:10;;;;;;;17.08;9.65;;;19.60;73.60;;;;;;4229259;28;20267;-79
2022/03/03 01:15:13;;;;;;;17.48;10.48;;;19.60;73.50;;;;;;4227589;28;20296;-79
2022/03/03 01:17:16;;;;;;;18.38;10.27;;;19.60;73.60;;;;;;4228696;28;20730;-79
2022/03/03 01:19:18;;;;;;;16.88;9.63;;;19.60;73.50;;;;;;4227035;28;20268;-79
2022/03/03 01:21:22;;;;;;;18.65;10.23;;;19.60;73.60;;;;;;4227633;28;20259;-79
2022/03/03 01:23:24;;;;;;;18.08;9.80;;;19.50;73.50;;;;;;4227165;28;20267;-80
2022/03/03 01:25:27;;;;;;;17.45;10.90;;;19.50;73.40;;;;;;4224368;28;20574;-79
2022/03/03 01:27:31;;;;;;;14.63;9.38;;;19.50;73.60;;;;;;4226309;28;20267;-79
2022/03/03 01:29:33;;;;;;;17.23;9.80;;;19.50;73.60;;;;;;4227218;28;20214;-79
2022/03/03 01:31:35;;;;;;;16.98;9.95;;;19.50;73.40;;;;;;4228628;28;20995;-79
2022/03/03 01:33:38;;;;;;;15.75;9.68;;;19.50;73.50;;;;;;4226677;28;20210;-79
2022/03/03 01:35:40;;;;;;;17.35;10.20;;;19.50;73.40;;;;;;4228737;28;20239;-79
2022/03/03 01:37:44;;;;;;;18.90;10.32;;;19.50;73.50;;;;;;4227814;28;20202;-79
2022/03/03 01:39:46;;;;;;;16.08;9.88;;;19.50;73.50;;;;;;4228607;28;20899;-79
2022/03/03 01:41:49;;;;;;;15.23;9.88;;;19.50;73.60;;;;;;4226617;28;20214;-79
2022/03/03 01:43:51;;;;;;;19.20;9.93;;;19.40;73.40;;;;;;4223094;28;20221;-79
2022/03/03 01:45:54;;;;;;;16.17;9.40;;;19.40;73.40;;;;;;4227042;28;20213;-79
2022/03/03 01:47:56;;;;;;;15.77;9.77;;;19.40;73.40;;;;;;4228048;28;20210;-79
2022/03/03 01:50:00;;;;;;;17.77;9.85;;;19.40;73.40;;;;;;4225417;28;20218;-79
2022/03/03 01:52:02;;;;;;;17.08;10.18;;;19.50;73.60;;;;;;4228329;28;20226;-79
2022/03/03 01:54:06;;;;;;;20.27;10.88;;;19.50;73.60;;;;;;4228662;28;20271;-79
2022/03/03 01:56:09;;;;;;;14.98;8.63;;;19.50;73.60;;;;;;4228414;28;20209;-79
2022/03/03 01:58:12;;;;;;;17.63;9.75;;;19.50;73.60;;;;;;4228775;28;20218;-79
2022/03/03 02:00:15;;;;;;;14.57;9.70;;;19.40;73.40;;;;;;4225696;28;20272;-79
2022/03/03 02:02:18;;;;;;;16.83;10.57;;;19.40;73.40;;;;;;4231825;28;20209;-79
2022/03/03 02:04:20;;;;;;;17.67;9.65;;;19.40;73.40;;;;;;4227401;28;20222;-79
2022/03/03 02:06:22;;;;;;;14.98;9.50;;;19.40;73.50;;;;;;4229221;28;20213;-79
2022/03/03 02:08:25;;;;;;;16.23;10.32;;;19.40;73.70;;;;;;4231069;28;20268;-79
2022/03/03 02:10:29;;;;;;;15.60;8.95;;;19.40;73.50;;;;;;4231471;28;20654;-79
2022/03/03 02:12:31;;;;;;;15.07;9.43;;;19.40;73.50;;;;;;4229211;28;20674;-79
2022/03/03 02:14:41;;;;;;;17.30;9.95;;;19.40;73.50;;;;;;4231183;28;20287;-79
2022/03/03 02:16:43;;;;;;;14.52;9.02;;;19.40;73.60;;;;;;4231410;28;20218;-79
2022/03/03 02:18:46;;;;;;;15.93;9.93;;;19.40;73.50;;;;;;4227897;28;20608;-73
2022/03/03 02:20:49;;;;;;;16.52;9.48;;;19.40;73.50;;;;;;4227419;28;20253;-73
2022/03/03 02:22:53;;;;;;;16.88;9.88;;;19.30;73.40;;;;;;4225153;28;20285;-72
2022/03/03 02:24:55;;;;;;;14.05;9.10;;;19.30;73.50;;;;;;4227240;28;20311;-72
2022/03/03 02:27:01;;;;;;;15.98;10.23;;;19.30;73.50;;;;;;4227806;28;20243;-73
2022/03/03 02:29:03;;;;;;;14.63;9.63;;;19.30;73.40;;;;;;4230202;28;20221;-72
2022/03/03 02:31:05;;;;;;;16.10;9.95;;;19.30;73.50;;;;;;4228990;28;20210;-72
2022/03/03 02:33:08;;;;;;;17.48;9.65;;;19.30;73.60;;;;;;4227804;28;20222;-73
2022/03/03 02:35:11;;;;;;;15.48;10.40;;;19.30;73.30;;;;;;4229472;28;20242;-72
2022/03/03 02:37:14;;;;;;;16.92;9.55;;;19.30;73.50;;;;;;4229721;28;20259;-79
2022/03/03 02:39:17;;;;;;;15.70;9.43;;;19.30;73.40;;;;;;4231004;28;20218;-79
2022/03/03 02:41:20;;;;;;;14.45;9.10;;;19.30;73.50;;;;;;4224682;28;20222;-79
2022/03/03 02:43:22;;;;;;;15.60;9.45;;;19.30;73.40;;;;;;4227059;28;20217;-79
2022/03/03 02:45:25;;;;;;;15.95;10.18;;;19.30;73.40;;;;;;4231228;28;20270;-79
2022/03/03 02:47:27;;;;;;;15.93;9.65;;;19.30;73.40;;;;;;4229193;28;20679;-79
2022/03/03 02:49:29;;;;;;;15.65;9.25;;;19.30;73.50;;;;;;4230131;28;20218;-79
2022/03/03 02:51:32;;;;;;;16.42;9.77;;;19.30;73.30;;;;;;4230752;28;20214;-79
2022/03/03 02:53:36;;;;;;;15.68;9.35;;;19.30;73.50;;;;;;4229519;28;20214;-79
2022/03/03 02:55:39;;;;;;;15.32;9.68;;;19.20;73.30;;;;;;4230626;28;20279;-79
2022/03/03 02:57:55;;;;;;;17.55;10.27;;;19.20;73.30;;;;;;4228840;28;20218;-79
2022/03/03 02:59:59;;;;;;;15.23;8.95;;;19.30;73.40;;;;;;4228175;27;20243;-79
2022/03/03 03:02:01;;;;;;;15.13;9.40;;;19.20;73.40;;;;;;4230343;28;20285;-79
2022/03/03 03:04:04;;;;;;;16.05;9.13;;;19.20;74.20;;;;;;4228524;28;20263;-79
2022/03/03 03:06:06;;;;;;;17.45;9.68;;;19.20;73.40;;;;;;4230366;28;20711;-79
2022/03/03 03:08:09;;;;;;;14.10;9.45;;;19.20;73.40;;;;;;4230709;28;20263;-79
2022/03/03 03:10:13;;;;;;;14.98;9.05;;;19.20;73.40;;;;;;4229063;28;20222;-78
2022/03/03 03:12:15;;;;;;;16.77;9.38;;;19.20;73.40;;;;;;4227295;28;20679;-79
2022/03/03 03:14:18;;;;;;;12.85;8.75;;;19.20;73.30;;;;;;4229572;28;20263;-79
2022/03/03 03:16:20;;;;;;;13.73;9.13;;;19.20;73.30;;;;;;4230618;28;20754;-79
2022/03/03 03:18:24;;;;;;;13.80;9.63;;;19.10;73.20;;;;;;4225040;28;20727;-79
2022/03/03 03:20:26;;;;;;;17.15;9.15;;;19.10;73.20;;;;;;4225684;28;20214;-79
2022/03/03 03:22:28;;;;;;;14.45;9.18;;;19.10;73.20;;;;;;4229419;28;20218;-79
2022/03/03 03:24:30;;;;;;;16.75;10.20;;;19.20;73.40;;;;;;4229392;28;20221;-79
2022/03/03 03:26:34;;;;;;;14.05;9.20;;;19.10;73.10;;;;;;4229380;28;20218;-79
2022/03/03 03:28:37;;;;;;;14.48;8.98;;;19.10;73.40;;;;;;4229431;28;20217;-80
2022/03/03 03:30:40;;;;;;;13.15;9.10;;;19.10;73.30;;;;;;4230408;28;20293;-80
2022/03/03 03:32:42;;;;;;;15.88;8.90;;;19.10;73.30;;;;;;4230021;28;20603;-80
2022/03/03 03:34:45;;;;;;;18.65;9.68;;;19.10;73.20;;;;;;4224047;28;20267;-80
2022/03/03 03:36:47;;;;;;;15.68;8.98;;;19.10;73.20;;;;;;4223704;28;20298;-79
2022/03/03 03:38:49;;;;;;;15.10;9.00;;;19.10;73.20;;;;;;4228314;28;20263;-80
2022/03/03 03:40:52;;;;;;;15.38;9.00;;;19.10;73.20;;;;;;4230427;28;20221;-80
2022/03/03 03:42:55;;;;;;;11.27;8.20;;;19.10;73.20;;;;;;4229324;28;20217;-80
2022/03/03 03:44:58;;;;;;;16.75;9.48;;;19.10;74.10;;;;;;4227703;28;20346;-80
2022/03/03 03:47:00;;;;;;;14.90;9.18;;;19.10;73.30;;;;;;4229411;28;20221;-79
2022/03/03 03:49:03;;;;;;;12.95;8.65;;;19.10;73.20;;;;;;4227431;28;20217;-80
2022/03/03 03:51:05;;;;;;;18.58;10.05;;;19.10;73.20;;;;;;4230142;28;20222;-79
2022/03/03 03:53:07;;;;;;;13.40;8.80;;;19.10;73.10;;;;;;4223372;28;20632;-79
2022/03/03 03:55:12;;;;;;;15.13;9.00;;;19.10;73.10;;;;;;4225751;28;20210;-79
2022/03/03 03:57:14;;;;;;;15.15;9.23;;;19.10;73.20;;;;;;4227017;28;20226;-79
2022/03/03 03:59:18;;;;;;;14.95;9.07;;;19.10;73.10;;;;;;4226956;28;20248;-79
2022/03/03 04:01:20;;;;;;;12.27;9.35;;;19.00;73.10;;;;;;4229118;28;20226;-79
2022/03/03 04:03:22;;;;;;;15.63;8.85;;;19.00;72.90;;;;;;4229623;28;20217;-79
2022/03/03 04:05:25;;;;;;;12.60;8.70;;;19.00;73.20;;;;;;4227188;28;20214;-79
2022/03/03 04:07:28;;;;;;;15.95;9.00;;;19.00;73.10;;;;;;4228506;28;20945;-79
2022/03/03 04:09:30;;;;;;;13.48;8.65;;;19.00;73.20;;;;;;4229433;28;20217;-79
2022/03/03 04:11:33;;;;;;;12.52;8.80;;;19.00;73.00;;;;;;4224715;28;20221;-79
2022/03/03 04:13:35;;;;;;;12.13;8.05;;;19.00;73.00;;;;;;4226489;28;20218;-79
2022/03/03 04:15:39;;;;;;;13.40;9.07;;;19.00;73.10;;;;;;4229254;28;20234;-79
2022/03/03 04:17:42;;;;;;;12.45;8.60;;;19.00;73.10;;;;;;4229231;28;20246;-79
2022/03/03 04:19:44;;;;;;;14.10;9.30;;;19.00;73.20;;;;;;4228980;28;20619;-79
2022/03/03 04:21:47;;;;;;;14.70;9.40;;;19.00;73.10;;;;;;4228146;28;20262;-79
2022/03/03 04:23:50;;;;;;;15.05;9.35;;;19.00;73.10;;;;;;4229288;28;20214;-79
2022/03/03 04:25:52;;;;;;;13.90;8.73;;;19.00;73.20;;;;;;4229409;28;20210;-79
2022/03/03 04:27:55;;;;;;;14.82;9.32;;;19.00;73.10;;;;;;4227686;28;20206;-79
2022/03/03 04:29:57;;;;;;;11.52;7.72;;;19.00;73.10;;;;;;4227474;28;20217;-79
2022/03/03 04:32:01;;;;;;;14.85;9.05;;;18.90;73.30;;;;;;4223862;28;20222;-79
2022/03/03 04:34:04;;;;;;;13.05;8.85;;;18.90;73.90;;;;;;4227558;28;20279;-79
2022/03/03 04:36:06;;;;;;;14.48;8.65;;;18.90;73.10;;;;;;4229058;28;20226;-79
2022/03/03 04:38:09;;;;;;;13.38;8.85;;;19.00;73.30;;;;;;4227345;28;20217;-79
2022/03/03 04:40:11;;;;;;;14.05;9.02;;;18.90;73.10;;;;;;4229228;28;20724;-79
2022/03/03 04:42:13;;;;;;;11.68;8.48;;;18.90;73.10;;;;;;4226545;28;20214;-78
2022/03/03 04:44:16;;;;;;;14.05;8.82;;;18.90;73.20;;;;;;4228181;28;20210;-79
2022/03/03 04:46:18;;;;;;;14.15;8.55;;;18.90;73.20;;;;;;4229219;28;20262;-78
2022/03/03 04:48:29;;;;;;;15.32;8.05;;;18.90;73.10;;;;;;4226028;28;20255;-79
2022/03/03 04:50:31;;;;;;;12.65;8.68;;;18.90;74.20;;;;;;4223267;28;20214;-73
2022/03/03 04:52:34;;;;;;;14.38;8.80;;;18.90;73.10;;;;;;4225300;28;20540;-73
2022/03/03 04:54:36;;;;;;;14.70;8.50;;;18.90;73.10;;;;;;4224301;28;20274;-72
2022/03/03 04:56:40;;;;;;;13.68;8.30;;;18.90;73.20;;;;;;4224492;28;20263;-73
2022/03/03 04:58:42;;;;;;;13.90;8.75;;;18.90;73.20;;;;;;4224700;28;20558;-73
2022/03/03 05:00:44;;;;;;;10.85;7.45;;;18.90;73.40;;;;;;4225063;28;20214;-73
2022/03/03 05:02:47;;;;;;;16.13;8.82;;;18.90;73.30;;;;;;4224403;28;20235;-73
2022/03/03 05:04:50;;;;;;;17.60;9.30;;;18.80;73.20;;;;;;4223048;28;20214;-72
2022/03/03 05:06:53;;;;;;;13.13;8.57;;;18.80;73.20;;;;;;4222874;28;20266;-73
2022/03/03 05:08:55;;;;;;;13.55;8.85;;;18.80;73.00;;;;;;4222235;28;20222;-73
2022/03/03 05:10:58;;;;;;;16.45;8.82;;;18.80;73.00;;;;;;4225683;28;20278;-73
2022/03/03 05:13:01;;;;;;;11.73;8.40;;;18.80;73.00;;;;;;4223248;28;20251;-72
2022/03/03 05:15:05;;;;;;;14.30;8.75;;;18.80;73.00;;;;;;4223167;28;20233;-72
2022/03/03 05:17:07;;;;;;;12.93;8.20;;;18.80;73.20;;;;;;4223670;28;20257;-72
2022/03/03 05:19:11;;;;;;;12.35;8.38;;;18.80;73.20;;;;;;4223691;28;20218;-72
2022/03/03 05:21:15;;;;;;;11.43;8.20;;;18.80;73.30;;;;;;4224531;28;20218;-72
2022/03/03 05:23:17;;;;;;;11.88;8.32;;;18.80;73.20;;;;;;4224278;28;20650;-73
2022/03/03 05:25:20;;;;;;;13.23;8.23;;;18.80;73.10;;;;;;4221719;28;20617;-72
2022/03/03 05:27:22;;;;;;;15.32;9.25;;;18.80;73.20;;;;;;4224855;28;20254;-72
2022/03/03 05:29:25;;;;;;;13.13;8.40;;;18.80;73.20;;;;;;4224778;28;20263;-73
2022/03/03 05:31:27;;;;;;;13.32;8.50;;;18.80;73.20;;;;;;4223808;28;20226;-73
2022/03/03 05:33:31;;;;;;;13.57;8.38;;;18.70;73.30;;;;;;4224851;28;20626;-73
2022/03/03 05:35:33;;;;;;;14.75;8.60;;;18.70;73.20;;;;;;4225077;28;20209;-73
2022/03/03 05:37:37;;;;;;;13.85;8.40;;;18.80;73.30;;;;;;4227269;28;20279;-73
2022/03/03 05:39:40;;;;;;;12.18;8.52;;;18.70;73.00;;;;;;4226259;28;20655;-73
2022/03/03 05:41:42;;;;;;;15.10;8.18;;;18.70;73.20;;;;;;4226753;28;20214;-73
2022/03/03 05:43:45;;;;;;;11.95;8.45;;;18.70;73.20;;;;;;4226155;28;20206;-79
2022/03/03 05:45:47;;;;;;;14.50;8.70;;;18.70;73.30;;;;;;4227076;28;20722;-79
2022/03/03 05:47:51;;;;;;;16.05;8.77;;;18.70;73.20;;;;;;4228344;28;20629;-79
2022/03/03 05:49:54;;;;;;;11.93;8.43;;;18.70;73.10;;;;;;4229723;28;20217;-79
2022/03/03 05:51:56;;;;;;;14.55;8.73;;;18.70;73.20;;;;;;4226238;28;20222;-79
2022/03/03 05:54:00;;;;;;;12.60;8.43;;;18.70;73.60;;;;;;4225950;28;20745;-80
2022/03/03 05:56:09;;;;;;;13.32;8.57;;;18.50;73.90;;;;;;4227571;28;20222;-79
2022/03/03 05:58:13;;;;;;;13.82;8.45;;;18.40;74.20;;;;;;4227820;28;20738;-79
2022/03/03 06:00:18;;;;;;;13.60;8.77;;;18.50;73.70;;;;;;4228221;28;20217;-79
2022/03/03 06:02:21;;;;;;;13.77;8.70;;;18.50;73.70;;;;;;4227768;28;20218;-79
2022/03/03 06:04:28;;;;;;;14.98;8.48;;;18.60;73.70;;;;;;4227101;28;20707;-79
2022/03/03 06:06:32;;;;;;;12.30;8.48;;;18.70;73.60;;;;;;4223703;28;20936;-79
2022/03/03 06:08:41;;;;;;;13.15;8.35;;;18.70;73.70;;;;;;4227622;28;20302;-79
2022/03/03 06:10:50;;;;;;;13.57;8.57;;;18.70;73.90;;;;;;4227352;28;20209;-79
2022/03/03 06:13:01;;;;;;;11.23;7.57;;;18.80;74.40;;;;;;4226661;28;20247;-79
2022/03/03 06:15:05;;;;;;;11.98;7.65;;;18.70;74.30;;;;;;4226671;28;20262;-79
2022/03/03 06:17:09;;;;;;;9.60;7.55;;;18.70;74.90;;;;;;4228160;28;20233;-79
2022/03/03 06:19:11;;;;;;;12.38;7.97;;;18.80;75.80;;;;;;4226846;28;20263;-79
2022/03/03 06:21:14;;;;;;;10.60;8.13;;;18.80;75.90;;;;;;4228008;28;20267;-79
2022/03/03 06:23:16;;;;;;;11.68;8.27;;;18.80;76.00;;;;;;4228137;28;20214;-79
2022/03/03 06:25:18;;;;;;;11.02;7.57;;;18.80;76.20;;;;;;4228098;28;20222;-79
2022/03/03 06:27:22;;;;;;;10.93;7.97;;;18.80;76.50;;;;;;4226880;28;20218;-79
2022/03/03 06:29:24;;;;;;;11.32;7.57;;;18.80;76.50;;;;;;4227025;28;20723;-79
2022/03/03 06:31:27;;;;;;;13.10;7.80;;;18.80;76.80;;;;;;4226458;28;20221;-79
2022/03/03 06:33:29;;;;;;;11.32;8.27;;;18.80;77.10;;;;;;4227060;28;20694;-79
2022/03/03 06:35:36;;;;;;;12.45;8.25;;;18.90;77.10;;;;;;4229430;28;20214;-79
2022/03/03 06:37:38;;;;;;;10.32;7.45;;;18.90;77.30;;;;;;4226150;28;20980;-73
2022/03/03 06:39:40;;;;;;;10.75;7.28;;;18.80;77.10;;;;;;4225080;28;20206;-73
2022/03/03 06:41:42;;;;;;;10.90;7.75;;;18.80;78.50;;;;;;4226893;28;20213;-73
2022/03/03 06:43:46;;;;;;;12.05;8.70;;;18.90;77.70;;;;;;4222631;28;20684;-79
2022/03/03 06:45:49;;;;;;;11.55;8.25;;;18.80;77.80;;;;;;4228125;28;20212;-79
2022/03/03 06:47:53;;;;;;;14.80;8.38;;;18.80;77.80;;;;;;4226605;28;20206;-79
2022/03/03 06:49:56;;;;;;;10.52;7.93;;;18.90;78.20;;;;;;4225428;28;20263;-79
2022/03/03 06:52:01;;;;;;;11.50;8.00;;;18.80;78.10;;;;;;4227077;28;20749;-79
2022/03/03 06:54:06;;;;;;;11.68;8.23;;;18.90;78.80;;;;;;4226875;28;20213;-79
2022/03/03 06:56:11;;;;;;;11.98;8.15;;;18.90;78.00;;;;;;4227963;28;20209;-79
2022/03/03 06:58:15;;;;;;;11.55;8.02;;;18.90;77.90;;;;;;4222785;28;20234;-79
2022/03/03 07:00:22;;;;;;;12.27;7.57;;;18.90;78.10;;;;;;4229566;28;20214;-79
2022/03/03 07:02:26;;;;;;;10.07;7.95;;;18.90;78.10;;;;;;4227431;28;20606;-79
2022/03/03 07:04:29;;;;;;;10.50;7.90;;;18.90;78.20;;;;;;4230597;28;20278;-79
2022/03/03 07:06:32;;;;;;;11.68;7.93;;;18.90;78.50;;;;;;4230300;28;20214;-79
2022/03/03 07:08:35;;;;;;;10.27;7.22;;;18.90;78.60;;;;;;4230447;28;20210;-79
2022/03/03 07:10:39;;;;;;;10.55;7.60;;;18.90;79.20;;;;;;4230179;28;20721;-79
2022/03/03 07:12:42;;;;;;;10.40;7.00;;;18.90;79.30;;;;;;4212871;28;20218;-79
2022/03/03 07:14:45;;;;;;;10.15;7.43;;;18.90;79.20;;;;;;4230786;28;20739;-79
2022/03/03 07:16:56;;;;;;;11.70;8.07;;;18.90;79.40;;;;;;4230827;28;20225;-79
2022/03/03 07:19:03;;;;;;;10.00;7.28;;;19.00;79.60;;;;;;4230481;28;20213;-79
2022/03/03 07:21:14;;;;;;;10.65;7.13;;;19.00;79.50;;;;;;4230539;28;20282;-79
2022/03/03 07:23:30;;;;;;;10.95;7.35;;;19.00;79.80;;;;;;4227812;28;20278;-79
2022/03/03 07:25:39;;;;;;;10.98;6.97;;;19.00;79.50;;;;;;4229781;28;20619;-79
2022/03/03 07:27:43;;;;;;;10.75;7.55;;;19.00;80.90;;;;;;4230952;28;20206;-79
2022/03/03 07:29:48;;;;;;;9.85;7.03;;;19.00;80.30;;;;;;4227616;28;20691;-79
2022/03/03 07:31:56;;;;;;;9.60;6.93;;;19.00;80.40;;;;;;4230356;28;20210;-79
2022/03/03 07:34:02;;;;;;;12.40;7.43;;;19.00;79.80;;;;;;4230150;28;20221;-79
2022/03/03 07:36:09;;;;;;;9.50;7.03;;;19.10;80.50;;;;;;4230445;28;20213;-79
2022/03/03 07:38:15;;;;;;;10.05;7.30;;;19.10;81.40;;;;;;4229948;28;20822;-79
2022/03/03 07:40:19;;;;;;;8.57;6.45;;;19.10;81.30;;;;;;4229264;28;20263;-79
2022/03/03 07:42:22;;;;;;;10.40;7.05;;;19.10;80.20;;;;;;4229455;28;20267;-79
2022/03/03 07:44:24;;;;;;;9.35;7.05;;;19.10;80.30;;;;;;4229781;28;20628;-79
2022/03/03 07:46:28;;;;;;;8.43;6.90;;;19.10;80.40;;;;;;4229945;28;20267;-79
2022/03/03 07:48:33;;;;;;;9.52;7.20;;;19.10;80.80;;;;;;4230116;28;20213;-79
2022/03/03 07:50:39;;;;;;;9.07;6.72;;;19.10;81.20;;;;;;4229231;28;20266;-79
2022/03/03 07:52:44;;;;;;;10.43;6.90;;;19.10;80.20;;;;;;4230543;28;20272;-79
2022/03/03 07:54:47;;;;;;;9.23;7.25;;;19.20;80.60;;;;;;4229715;28;20626;-79
2022/03/03 07:56:55;;;;;;;9.68;6.85;;;19.10;81.30;;;;;;4229622;28;20225;-79
2022/03/03 07:59:03;;;;;;;10.32;7.13;;;19.10;81.00;;;;;;4230087;28;20238;-79
2022/03/03 08:01:06;;;;;;;11.70;7.32;;;19.20;81.50;;;;;;4225173;28;20205;-79
2022/03/03 08:03:09;;;;;;;9.27;7.10;;;19.20;80.80;;;;;;4228630;28;20296;-79
2022/03/03 08:05:13;;;;;;;9.35;6.68;;;19.20;80.80;;;;;;4229229;28;20258;-79
2022/03/03 08:07:17;;;;;;;10.73;6.70;;;19.20;80.30;;;;;;4226836;28;20210;-79
2022/03/03 08:09:21;;;;;;;8.65;6.82;;;19.30;80.60;;;;;;4228817;28;20222;-79
2022/03/03 08:11:26;;;;;;;9.35;6.68;;;19.30;81.20;;;;;;4229458;28;20281;-79
2022/03/03 08:13:30;;;;;;;9.35;6.88;;;19.30;81.20;;;;;;4225626;27;20259;-78
2022/03/03 08:15:32;;;;;;;11.68;7.65;;;19.30;82.00;;;;;;4221371;28;20230;-79
2022/03/03 08:17:37;;;;;;;13.32;7.22;;;19.20;78.10;;;;;;4221854;28;20214;-79
2022/03/03 08:19:40;;;;;;;7.95;5.90;;;19.30;79.70;;;;;;4222118;28;20655;-78
2022/03/03 08:21:46;;;;;;;7.55;6.07;;;19.40;79.80;;;;;;4227637;28;20259;-77
2022/03/03 08:23:49;;;;;;;9.80;6.40;;;19.40;81.40;;;;;;4223703;28;20255;-77
2022/03/03 08:25:53;;;;;;;11.90;6.80;;;19.50;81.10;;;;;;4224692;28;20214;-78
2022/03/03 08:27:55;;;;;;;8.35;6.15;;;19.50;80.20;;;;;;4228204;28;20217;-78
2022/03/03 08:29:58;;;;;;;8.23;6.20;;;19.60;79.80;;;;;;4224839;28;21490;-78
2022/03/03 08:32:02;;;;;;;9.60;6.20;;;19.60;81.10;;;;;;4228106;28;20616;-79
2022/03/03 08:34:12;;;;;;;6.97;5.72;;;19.60;81.60;;;;;;4224367;28;20221;-78
2022/03/03 08:36:22;;;;;;;10.98;6.05;;;19.70;80.90;;;;;;4226113;28;20217;-77
2022/03/03 08:38:34;;;;;;;7.15;5.72;;;19.70;80.90;;;;;;4220032;28;20698;-78
2022/03/03 08:40:37;;;;;;;7.82;6.18;;;19.70;81.00;;;;;;4224036;28;20213;-78
2022/03/03 08:42:43;;;;;;;7.93;6.10;;;19.70;81.30;;;;;;4219466;28;20214;-78
2022/03/03 08:44:54;;;;;;;9.10;6.47;;;19.70;81.40;;;;;;4223450;28;20263;-76
2022/03/03 08:46:58;;;;;;;11.00;6.47;;;19.80;82.80;;;;;;4223900;28;20695;-78
2022/03/03 08:49:02;;;;;;;9.43;6.50;;;19.80;83.00;;;;;;4225662;28;20657;-77
2022/03/03 08:51:04;;;;;;;9.48;6.60;;;19.80;83.10;;;;;;4227013;28;20621;-77
2022/03/03 08:53:08;;;;;;;9.07;6.40;;;19.90;83.60;;;;;;4217010;28;20270;-77
2022/03/03 08:55:15;;;;;;;11.88;6.57;;;19.90;82.10;;;;;;4214695;28;20218;-75
2022/03/03 08:57:18;;;;;;;11.40;6.35;;;19.80;81.00;;;;;;4217791;28;20218;-77
2022/03/03 08:59:20;;;;;;;7.10;5.72;;;19.80;81.40;;;;;;4221794;28;20242;-77
2022/03/03 09:01:23;;;;;;;7.78;5.55;;;20.00;82.40;;;;;;4216691;28;20221;-77
2022/03/03 09:03:25;;;;;;;9.48;5.90;;;20.10;83.50;;;;;;4219893;28;20240;-78
2022/03/03 09:05:28;;;;;;;9.75;6.40;;;20.20;83.90;;;;;;4221426;28;20226;-78
2022/03/03 09:07:31;;;;;;;8.48;6.20;;;20.30;82.80;;;;;;4218195;28;20214;-79
2022/03/03 09:09:36;;;;;;;9.70;6.13;;;20.40;84.40;;;;;;4216975;28;20267;-77
2022/03/03 09:11:40;;;;;;;12.07;5.72;;;20.40;81.30;;;;;;4229698;27;20210;-79
2022/03/03 09:13:42;;;;;;;10.18;6.22;;;20.60;82.00;;;;;;4229085;27;20274;-78
2022/03/03 09:15:44;;;;;;;7.03;5.95;;;20.70;82.50;;;;;;4230185;28;20286;-77
2022/03/03 09:17:47;;;;;;;8.25;5.63;;;20.80;84.40;;;;;;4227127;27;20218;-76
2022/03/03 09:19:49;;;;;;;9.02;5.85;;;20.80;83.20;;;;;;4227792;28;20290;-81
2022/03/03 09:21:56;;;;;;;9.13;5.85;;;20.80;83.90;;;;;;4229529;28;20213;-83
2022/03/03 09:23:58;;;;;;;9.00;5.95;;;20.90;84.30;;;;;;4229368;28;20218;-81
2022/03/03 09:26:01;;;;;;;10.43;5.75;;;20.90;85.50;;;;;;4228767;28;20297;-79
2022/03/03 09:28:06;;;;;;;8.95;6.57;;;21.00;83.80;;;;;;4223787;28;20263;-78
2022/03/03 09:30:10;;;;;;;8.73;5.80;;;21.00;82.90;;;;;;4223038;27;20213;-79
2022/03/03 09:32:13;;;;;;;10.40;6.50;;;21.10;83.30;;;;;;4229239;28;20266;-78
2022/03/03 09:34:16;;;;;;;7.63;6.00;;;21.10;83.50;;;;;;4230234;28;20260;-80
2022/03/03 09:36:19;;;;;;;7.85;5.78;;;21.20;84.10;;;;;;4224141;28;20214;-78
2022/03/03 09:38:21;;;;;;;8.32;6.28;;;21.20;83.90;;;;;;4220927;28;20210;-79
2022/03/03 09:40:24;;;;;;;7.45;5.88;;;21.20;83.90;;;;;;4226326;28;20275;-81
2022/03/03 09:42:31;;;;;;;7.40;5.70;;;21.20;82.90;;;;;;4224576;28;20608;-81
2022/03/03 09:44:35;;;;;;;8.85;6.05;;;21.30;83.10;;;;;;4226557;28;20213;-79
2022/03/03 09:46:37;;;;;;;14.30;6.40;;;21.30;82.80;;;;;;4225602;28;20222;-77
2022/03/03 09:48:40;;;;;;;9.43;5.45;;;21.40;83.30;;;;;;4223904;28;20213;-78
2022/03/03 09:50:42;;;;;;;7.63;5.97;;;21.40;83.70;;;;;;4220678;28;20738;-78
2022/03/03 09:52:45;;;;;;;8.10;6.30;;;21.40;83.60;;;;;;4224798;28;20217;-77
2022/03/03 09:54:50;;;;;;;8.02;5.68;;;21.40;83.80;;;;;;4226026;27;20213;-78
2022/03/03 09:56:55;;;;;;;9.00;6.05;;;21.40;83.20;;;;;;4222881;28;20206;-78
2022/03/03 09:58:58;;;;;;;11.43;5.90;;;21.50;83.60;;;;;;4226582;28;20241;-81
2022/03/03 10:01:01;;;;;;;8.90;6.20;;;21.50;83.30;;;;;;4225173;28;20214;-81
2022/03/03 10:03:08;;;;;;;8.60;5.38;;;21.50;83.00;;;;;;4224783;28;20262;-83
2022/03/03 10:05:10;;;;;;;8.80;5.93;;;21.60;83.30;;;;;;4223394;28;20244;-80
2022/03/03 10:07:13;;;;;;;10.70;5.78;;;21.60;84.50;;;;;;4223043;28;20221;-79
2022/03/03 10:09:17;;;;;;;10.20;5.63;;;21.60;83.90;;;;;;4222684;28;20629;-78
2022/03/03 10:11:19;;;;;;;6.20;5.05;;;21.60;84.50;;;;;;4221806;28;20222;-76
2022/03/03 10:13:22;;;;;;;6.93;5.88;;;21.60;84.40;;;;;;4223136;28;20282;-75
2022/03/03 10:15:28;;;;;;;10.23;6.05;;;21.60;83.80;;;;;;4222723;28;20336;-77
2022/03/03 10:17:39;;;;;;;11.15;6.15;;;21.70;83.70;;;;;;4221947;28;20600;-78
2022/03/03 10:20:02;;;;;;;8.25;6.35;;;21.80;83.30;;;;;;4225888;28;20241;-78
2022/03/03 10:22:05;;;;;;;8.85;6.00;;;21.80;83.60;;;;;;4225770;28;20616;-78
2022/03/03 10:24:19;;;;;;;7.68;5.85;;;21.80;84.20;;;;;;4226023;28;20667;-78
2022/03/03 10:26:21;;;;;;;9.00;6.13;;;21.80;84.20;;;;;;4225086;28;20270;-76
2022/03/03 10:28:29;;;;;;;11.00;6.60;;;21.80;84.00;;;;;;4213365;28;20294;-79
2022/03/03 10:30:51;;;;;;;11.07;7.15;;;21.80;83.40;;;;;;4224785;28;20262;-77
2022/03/03 10:32:55;;;;;;;14.68;6.45;;;21.80;82.70;;;;;;4215192;28;20275;-80
2022/03/03 10:35:03;;;;;;;12.40;6.22;;;21.90;82.90;;;;;;4219065;28;20283;-77
2022/03/03 10:37:07;;;;;;;10.57;6.57;;;21.80;82.90;;;;;;4221407;28;20205;-81